Time;durP1;ratioP1;P1;durP2;ratioP2;P2;SDS_P1;SDS_P2;PMS_P1;PMS_P2;Temp;Humidity;BMP_temperature;BMP_pressure;BME280_temperature;BME280_humidity;BME280_pressure;Samples;Min_cycle;Max_cycle;Signal;HPM_P1;HPM_P2
2022/06/11 00:00:34;;;;;;;8.80;2.25;;;;;;;;;;5065376;28;20488;-67
2022/06/11 00:02:59;;;;;;;7.60;2.20;;;;;;;;;;5058251;28;20051;-67
2022/06/11 00:05:24;;;;;;;10.35;2.75;;;;;;;;;;5072601;28;20280;-67
2022/06/11 00:07:50;;;;;;;9.13;2.88;;;;;;;;;;5066888;28;20016;-67
2022/06/11 00:10:15;;;;;;;9.30;2.40;;;;;;;;;;5059402;28;20059;-67
2022/06/11 00:12:40;;;;;;;8.27;2.42;;;;;;;;;;5071553;28;20017;-67
2022/06/11 00:15:06;;;;;;;6.93;2.60;;;;;;;;;;5066183;28;20489;-67
2022/06/11 00:17:32;;;;;;;6.13;2.70;;;;;;;;;;5069562;28;20297;-67
2022/06/11 00:19:58;;;;;;;7.35;2.47;;;;;;;;;;5067058;28;20032;-67
2022/06/11 00:22:23;;;;;;;9.20;2.80;;;;;;;;;;5060542;28;20027;-67
2022/06/11 00:24:48;;;;;;;8.90;2.35;;;;;;;;;;5058083;28;20413;-67
2022/06/11 00:27:14;;;;;;;11.73;2.50;;;;;;;;;;5061424;28;20024;-67
2022/06/11 00:29:40;;;;;;;6.43;2.20;;;;;;;;;;5062625;28;20028;-67
2022/06/11 00:32:06;;;;;;;7.00;2.80;;;;;;;;;;5066388;28;20031;-67
2022/06/11 00:34:31;;;;;;;7.20;2.63;;;;;;;;;;5067285;28;20017;-67
2022/06/11 00:36:57;;;;;;;6.45;2.22;;;;;;;;;;5060783;28;20362;-67
2022/06/11 00:39:24;;;;;;;9.90;2.72;;;;;;;;;;5064962;28;20064;-67
2022/06/11 00:41:51;;;;;;;7.82;2.67;;;;;;;;;;5117018;22;20094;-68
2022/06/11 00:44:16;;;;;;;11.27;2.72;;;;;;;;;;5063091;28;20032;-69
2022/06/11 00:46:54;;;;;;;12.97;2.23;;;;;;;;;;5060354;28;20021;-68
2022/06/11 00:49:37;;;;;;;7.15;2.40;;;;;;;;;;5056764;28;20310;-68
2022/06/11 00:52:23;;;;;;;9.85;2.35;;;;;;;;;;5062380;28;20020;-70
2022/06/11 00:54:54;;;;;;;10.68;2.88;;;;;;;;;;5056576;28;20102;-70
2022/06/11 00:57:19;;;;;;;5.05;2.13;;;;;;;;;;5060089;28;20025;-69
2022/06/11 00:59:50;;;;;;;7.82;2.17;;;;;;;;;;5070617;28;20035;-68
2022/06/11 01:02:15;;;;;;;11.10;3.03;;;;;;;;;;5068274;28;20033;-70
2022/06/11 01:04:41;;;;;;;8.05;2.55;;;;;;;;;;5060983;28;20044;-68
2022/06/11 01:07:26;;;;;;;12.20;3.40;;;;;;;;;;5060665;28;20051;-69
2022/06/11 01:10:02;;;;;;;11.02;3.20;;;;;;;;;;5050766;28;20164;-69
2022/06/11 01:12:40;;;;;;;11.13;3.40;;;;;;;;;;5058574;28;20009;-69
2022/06/11 01:15:05;;;;;;;6.95;2.70;;;;;;;;;;5059133;28;20024;-69
2022/06/11 01:17:42;;;;;;;11.33;2.87;;;;;;;;;;5060274;28;20032;-69
2022/06/11 01:20:10;;;;;;;6.47;3.03;;;;;;;;;;5060410;28;20626;-69
2022/06/11 01:22:53;;;;;;;6.35;2.75;;;;;;;;;;5070068;28;20029;-70
2022/06/11 01:25:19;;;;;;;7.65;2.80;;;;;;;;;;5059950;28;20025;-69
2022/06/11 01:27:55;;;;;;;7.28;2.38;;;;;;;;;;5065685;28;20034;-69
2022/06/11 01:30:26;;;;;;;9.75;3.30;;;;;;;;;;5043881;28;20115;-69
2022/06/11 01:33:11;;;;;;;5.22;2.33;;;;;;;;;;5067468;28;20024;-69
2022/06/11 01:35:39;;;;;;;7.38;2.53;;;;;;;;;;5065984;28;20020;-69
2022/06/11 01:38:23;;;;;;;5.88;2.20;;;;;;;;;;5040379;28;20017;-70
2022/06/11 01:40:51;;;;;;;12.88;3.25;;;;;;;;;;5062030;28;20086;-70
2022/06/11 01:43:19;;;;;;;10.45;3.30;;;;;;;;;;5056766;28;20104;-70
2022/06/11 01:45:45;;;;;;;4.88;2.22;;;;;;;;;;5065509;28;20024;-70
2022/06/11 01:48:14;;;;;;;11.60;2.60;;;;;;;;;;5065825;28;20081;-70
2022/06/11 01:50:41;;;;;;;9.20;2.40;;;;;;;;;;5068415;28;20334;-70
2022/06/11 01:53:27;;;;;;;5.72;2.40;;;;;;;;;;5059197;28;20021;-70
2022/06/11 01:56:06;;;;;;;5.68;2.63;;;;;;;;;;5063963;28;20032;-70
2022/06/11 01:58:50;;;;;;;8.73;3.20;;;;;;;;;;5057318;28;20327;-70
2022/06/11 02:01:24;;;;;;;9.25;2.80;;;;;;;;;;5064909;28;20028;-70
2022/06/11 02:04:02;;;;;;;8.02;2.55;;;;;;;;;;5067933;28;20063;-70
2022/06/11 02:06:47;;;;;;;5.03;2.30;;;;;;;;;;5061247;28;20030;-70
2022/06/11 02:09:21;;;;;;;5.82;2.47;;;;;;;;;;5060641;28;20284;-70
2022/06/11 02:11:51;;;;;;;6.90;2.60;;;;;;;;;;5063311;28;20479;-70
2022/06/11 02:14:20;;;;;;;8.32;2.70;;;;;;;;;;5063426;28;20053;-70
2022/06/11 02:16:50;;;;;;;10.73;2.83;;;;;;;;;;5067788;28;20016;-70
2022/06/11 02:19:18;;;;;;;10.70;3.10;;;;;;;;;;5062583;28;20029;-70
2022/06/11 02:21:49;;;;;;;7.35;2.90;;;;;;;;;;5059435;28;20347;-70
2022/06/11 02:24:17;;;;;;;4.72;2.25;;;;;;;;;;5058011;28;20078;-70
2022/06/11 02:26:44;;;;;;;5.65;2.72;;;;;;;;;;5058622;28;20020;-70
2022/06/11 02:29:12;;;;;;;6.47;2.83;;;;;;;;;;5055120;28;20075;-70
2022/06/11 02:31:42;;;;;;;12.70;2.70;;;;;;;;;;5059157;28;20020;-70
2022/06/11 02:34:08;;;;;;;8.77;2.88;;;;;;;;;;5068619;28;20024;-70
2022/06/11 02:36:43;;;;;;;10.18;2.55;;;;;;;;;;5061698;28;20017;-70
2022/06/11 02:39:09;;;;;;;8.63;2.38;;;;;;;;;;5067439;28;20036;-70
2022/06/11 02:41:34;;;;;;;8.90;2.67;;;;;;;;;;5061139;28;20435;-70
2022/06/11 02:43:59;;;;;;;8.82;2.60;;;;;;;;;;5054903;28;20017;-70
2022/06/11 02:46:43;;;;;;;9.17;2.60;;;;;;;;;;5063531;28;20082;-70
2022/06/11 02:49:10;;;;;;;13.77;2.50;;;;;;;;;;5057235;28;20333;-70
2022/06/11 02:51:35;;;;;;;5.97;2.45;;;;;;;;;;5053604;28;20131;-70
2022/06/11 02:54:01;;;;;;;6.80;2.53;;;;;;;;;;5057101;28;20036;-70
2022/06/11 02:56:27;;;;;;;9.27;3.10;;;;;;;;;;5053361;28;20376;-70
2022/06/11 02:58:52;;;;;;;6.25;2.38;;;;;;;;;;5057165;28;20025;-70
2022/06/11 03:01:18;;;;;;;9.73;2.90;;;;;;;;;;5056623;28;20028;-68
2022/06/11 03:03:44;;;;;;;7.82;2.67;;;;;;;;;;5063802;28;20275;-68
2022/06/11 03:06:09;;;;;;;7.95;2.55;;;;;;;;;;5068412;28;20039;-68
2022/06/11 03:08:35;;;;;;;14.38;2.80;;;;;;;;;;5068092;28;20039;-70
2022/06/11 03:11:00;;;;;;;11.27;2.58;;;;;;;;;;5060176;28;20088;-68
2022/06/11 03:13:26;;;;;;;9.80;3.47;;;;;;;;;;5056094;28;20025;-68
2022/06/11 03:15:51;;;;;;;6.60;2.53;;;;;;;;;;5054550;28;20267;-68
2022/06/11 03:18:16;;;;;;;8.25;2.72;;;;;;;;;;5068582;28;20024;-70
2022/06/11 03:20:42;;;;;;;9.30;2.87;;;;;;;;;;5062529;28;20031;-68
2022/06/11 03:23:08;;;;;;;7.93;2.58;;;;;;;;;;5067720;28;20025;-70
2022/06/11 03:25:33;;;;;;;7.18;2.80;;;;;;;;;;5059772;28;20024;-70
2022/06/11 03:28:04;;;;;;;10.27;3.45;;;;;;;;;;5057739;28;20540;-70
2022/06/11 03:30:29;;;;;;;9.25;2.17;;;;;;;;;;5063563;28;20090;-69
2022/06/11 03:32:54;;;;;;;7.47;3.05;;;;;;;;;;5064188;28;20528;-70
2022/06/11 03:35:19;;;;;;;8.85;2.90;;;;;;;;;;5060923;28;20013;-70
2022/06/11 03:37:45;;;;;;;4.97;2.43;;;;;;;;;;5054177;28;20095;-70
2022/06/11 03:40:11;;;;;;;9.90;2.60;;;;;;;;;;5063855;28;20278;-70
2022/06/11 03:42:36;;;;;;;5.68;2.85;;;;;;;;;;5052304;28;20029;-70
2022/06/11 03:45:02;;;;;;;7.45;2.65;;;;;;;;;;5066382;28;20024;-69
2022/06/11 03:47:27;;;;;;;7.97;2.60;;;;;;;;;;5067263;28;20508;-70
2022/06/11 03:49:53;;;;;;;13.73;3.00;;;;;;;;;;5061278;28;20103;-70
2022/06/11 03:52:18;;;;;;;9.00;3.00;;;;;;;;;;5063508;28;20271;-69
2022/06/11 03:54:43;;;;;;;9.53;3.20;;;;;;;;;;5058129;28;20055;-70
2022/06/11 03:57:08;;;;;;;12.00;3.17;;;;;;;;;;5059594;28;20596;-70
2022/06/11 03:59:34;;;;;;;11.20;3.17;;;;;;;;;;5066634;28;20301;-70
2022/06/11 04:01:59;;;;;;;7.32;3.03;;;;;;;;;;5067282;28;20023;-70
2022/06/11 04:04:25;;;;;;;8.25;2.90;;;;;;;;;;5065727;28;20024;-68
2022/06/11 04:06:52;;;;;;;9.75;3.15;;;;;;;;;;5052103;28;20028;-70
2022/06/11 04:09:19;;;;;;;10.68;3.00;;;;;;;;;;5058664;28;20016;-70
2022/06/11 04:11:45;;;;;;;7.50;2.90;;;;;;;;;;5058809;28;20031;-69
2022/06/11 04:14:10;;;;;;;8.63;3.00;;;;;;;;;;5061435;28;20021;-70
2022/06/11 04:16:39;;;;;;;10.33;2.70;;;;;;;;;;5056579;28;20032;-71
2022/06/11 04:19:06;;;;;;;7.97;3.58;;;;;;;;;;5063975;28;20572;-70
2022/06/11 04:21:32;;;;;;;13.70;3.00;;;;;;;;;;5066935;28;20102;-69
2022/06/11 04:23:58;;;;;;;8.50;3.00;;;;;;;;;;5061130;28;20103;-71
2022/06/11 04:26:26;;;;;;;15.38;3.08;;;;;;;;;;5068819;28;20107;-70
2022/06/11 04:28:51;;;;;;;11.80;3.53;;;;;;;;;;5064582;28;20024;-68
2022/06/11 04:31:16;;;;;;;8.32;2.72;;;;;;;;;;5060174;28;20071;-70
2022/06/11 04:33:47;;;;;;;8.00;2.97;;;;;;;;;;5055750;28;20013;-70
2022/06/11 04:36:12;;;;;;;6.63;3.10;;;;;;;;;;5062595;28;20423;-70
2022/06/11 04:38:38;;;;;;;10.18;3.45;;;;;;;;;;5041627;28;20017;-69
2022/06/11 04:41:04;;;;;;;10.13;3.22;;;;;;;;;;5055741;28;20016;-70
2022/06/11 04:43:29;;;;;;;11.90;3.30;;;;;;;;;;5062763;28;20243;-70
2022/06/11 04:45:54;;;;;;;7.90;3.17;;;;;;;;;;5066079;28;20532;-70
2022/06/11 04:48:19;;;;;;;7.37;2.37;;;;;;;;;;5068000;28;20092;-70
2022/06/11 04:50:45;;;;;;;8.53;2.43;;;;;;;;;;5062202;28;20908;-70
2022/06/11 04:53:10;;;;;;;8.80;2.70;;;;;;;;;;5071278;28;20298;-71
2022/06/11 04:55:35;;;;;;;12.43;2.80;;;;;;;;;;5070279;28;20326;-70
2022/06/11 04:58:01;;;;;;;8.05;2.92;;;;;;;;;;5063602;28;20070;-70
2022/06/11 05:00:28;;;;;;;6.03;3.00;;;;;;;;;;5064445;28;20017;-70
2022/06/11 05:02:53;;;;;;;9.07;2.50;;;;;;;;;;5064022;28;20477;-70
2022/06/11 05:05:18;;;;;;;10.85;2.72;;;;;;;;;;5064849;28;20070;-70
2022/06/11 05:07:44;;;;;;;5.88;2.78;;;;;;;;;;5065635;28;20028;-70
2022/06/11 05:10:11;;;;;;;6.70;2.80;;;;;;;;;;5067768;28;20033;-70
2022/06/11 05:12:36;;;;;;;11.52;3.35;;;;;;;;;;5070936;28;20036;-70
2022/06/11 05:15:01;;;;;;;9.38;3.17;;;;;;;;;;5065780;28;20017;-70
2022/06/11 05:17:27;;;;;;;7.38;2.78;;;;;;;;;;5054726;28;20122;-70
2022/06/11 05:19:52;;;;;;;7.40;2.70;;;;;;;;;;5063221;28;20031;-70
2022/06/11 05:22:18;;;;;;;7.30;2.70;;;;;;;;;;5069573;28;20025;-70
2022/06/11 05:24:43;;;;;;;4.90;2.67;;;;;;;;;;5066499;28;20032;-70
2022/06/11 05:27:11;;;;;;;9.93;2.60;;;;;;;;;;5058385;28;20277;-70
2022/06/11 05:29:41;;;;;;;8.80;3.00;;;;;;;;;;5062275;28;20025;-70
2022/06/11 05:32:06;;;;;;;9.30;2.40;;;;;;;;;;5060782;28;20028;-70
2022/06/11 05:34:32;;;;;;;8.38;2.53;;;;;;;;;;5065328;28;20017;-70
2022/06/11 05:36:57;;;;;;;14.90;3.92;;;;;;;;;;5061885;28;20019;-70
2022/06/11 05:39:23;;;;;;;5.50;2.53;;;;;;;;;;5061227;28;20469;-70
2022/06/11 05:41:48;;;;;;;9.15;2.67;;;;;;;;;;5067736;28;20028;-70
2022/06/11 05:44:13;;;;;;;6.28;2.33;;;;;;;;;;5067716;28;20024;-70
2022/06/11 05:46:38;;;;;;;7.15;2.92;;;;;;;;;;5061366;28;20021;-70
2022/06/11 05:49:06;;;;;;;8.27;3.00;;;;;;;;;;5066808;28;20485;-70
2022/06/11 05:51:33;;;;;;;10.65;2.67;;;;;;;;;;5058108;28;20021;-70
2022/06/11 05:54:01;;;;;;;9.05;3.22;;;;;;;;;;5067411;28;20016;-70
2022/06/11 05:56:26;;;;;;;7.97;2.92;;;;;;;;;;5065076;28;20465;-70
2022/06/11 05:58:54;;;;;;;4.80;2.57;;;;;;;;;;5060559;28;20086;-70
2022/06/11 06:01:21;;;;;;;9.77;3.13;;;;;;;;;;5062790;28;20306;-70
2022/06/11 06:03:46;;;;;;;7.30;2.83;;;;;;;;;;5060102;28;20094;-70
2022/06/11 06:06:11;;;;;;;7.38;2.95;;;;;;;;;;5060623;28;20029;-71
2022/06/11 06:08:36;;;;;;;6.63;2.83;;;;;;;;;;5061229;28;20070;-70
2022/06/11 06:11:02;;;;;;;11.33;2.97;;;;;;;;;;5061554;28;20710;-71
2022/06/11 06:16:12;;;;;;;7.95;2.33;;;;;;;;;;5060772;28;20565;-71
2022/06/11 06:18:38;;;;;;;11.30;2.95;;;;;;;;;;5061195;28;20024;-70
2022/06/11 06:21:04;;;;;;;9.40;3.33;;;;;;;;;;5064604;28;20028;-71
2022/06/11 06:23:31;;;;;;;12.90;2.78;;;;;;;;;;5062014;28;20012;-70
2022/06/11 06:25:56;;;;;;;8.30;2.83;;;;;;;;;;5061152;28;20031;-71
2022/06/11 06:28:21;;;;;;;10.90;2.60;;;;;;;;;;5056511;28;20175;-71
2022/06/11 06:30:46;;;;;;;6.27;2.30;;;;;;;;;;5064319;28;20286;-71
2022/06/11 06:33:11;;;;;;;11.57;2.87;;;;;;;;;;5058648;28;20086;-71
2022/06/11 06:35:36;;;;;;;9.00;2.53;;;;;;;;;;5063006;28;20361;-71
2022/06/11 06:38:02;;;;;;;5.73;2.00;;;;;;;;;;5059506;28;20055;-71
2022/06/11 06:40:27;;;;;;;8.02;2.22;;;;;;;;;;5085875;22;20052;-67
2022/06/11 06:42:53;;;;;;;5.93;3.00;;;;;;;;;;5074792;28;20024;-67
2022/06/11 06:45:20;;;;;;;8.53;2.20;;;;;;;;;;5063731;28;20012;-67
2022/06/11 06:47:45;;;;;;;12.15;2.47;;;;;;;;;;5078541;28;20105;-67
2022/06/11 06:50:10;;;;;;;10.53;2.60;;;;;;;;;;5077054;28;20099;-66
2022/06/11 06:52:35;;;;;;;7.57;2.20;;;;;;;;;;5056493;28;20752;-66
2022/06/11 06:55:00;;;;;;;5.90;2.73;;;;;;;;;;5052400;28;20758;-67
2022/06/11 06:57:26;;;;;;;5.60;2.03;;;;;;;;;;5054515;28;20640;-67
2022/06/11 06:59:51;;;;;;;7.87;3.23;;;;;;;;;;5066310;28;20353;-67
2022/06/11 07:02:16;;;;;;;10.97;2.63;;;;;;;;;;5060076;28;20274;-67
2022/06/11 07:04:41;;;;;;;10.10;2.05;;;;;;;;;;5067415;28;20305;-67
2022/06/11 07:07:07;;;;;;;11.37;2.30;;;;;;;;;;5052535;28;20021;-67
2022/06/11 07:09:32;;;;;;;4.25;2.28;;;;;;;;;;5057210;28;20390;-67
2022/06/11 07:11:57;;;;;;;10.63;2.78;;;;;;;;;;5067500;28;20451;-67
2022/06/11 07:14:23;;;;;;;9.73;2.80;;;;;;;;;;5063620;28;20095;-67
2022/06/11 07:16:51;;;;;;;8.70;2.63;;;;;;;;;;5071859;28;20274;-67
2022/06/11 07:19:21;;;;;;;7.50;2.45;;;;;;;;;;5058170;28;20020;-66
2022/06/11 07:21:46;;;;;;;;;;;;;;;;;;5067474;28;20059;-67
2022/06/11 07:24:15;;;;;;;7.13;1.80;;;;;;;;;;5061831;28;19944;-67
2022/06/11 07:26:42;;;;;;;12.07;2.53;;;;;;;;;;5063439;28;20020;-67
2022/06/11 07:29:13;;;;;;;8.52;2.00;;;;;;;;;;5059953;28;20465;-67
2022/06/11 07:31:39;;;;;;;6.97;2.20;;;;;;;;;;5063620;28;20028;-67
2022/06/11 07:34:04;;;;;;;7.00;2.15;;;;;;;;;;5042607;28;20033;-67
2022/06/11 07:36:29;;;;;;;8.77;2.53;;;;;;;;;;5054498;28;20021;-67
2022/06/11 07:38:55;;;;;;;7.53;2.03;;;;;;;;;;5065899;28;20030;-68
2022/06/11 07:41:20;;;;;;;6.07;2.40;;;;;;;;;;5060541;28;20123;-68
2022/06/11 07:43:45;;;;;;;9.87;2.20;;;;;;;;;;5071625;28;20093;-68
2022/06/11 07:46:10;;;;;;;6.15;2.45;;;;;;;;;;5069932;28;20827;-68
2022/06/11 07:48:36;;;;;;;7.67;1.80;;;;;;;;;;5066217;28;20094;-67
2022/06/11 07:51:02;;;;;;;9.10;1.77;;;;;;;;;;5059156;28;20025;-68
2022/06/11 07:53:27;;;;;;;7.88;2.65;;;;;;;;;;5065792;28;20027;-68
2022/06/11 07:55:53;;;;;;;4.43;2.20;;;;;;;;;;5067456;28;20012;-68
2022/06/11 07:58:20;;;;;;;7.90;2.00;;;;;;;;;;5067658;28;20370;-68
2022/06/11 08:00:46;;;;;;;5.00;1.75;;;;;;;;;;5064471;28;20016;-68
2022/06/11 08:03:12;;;;;;;5.20;1.95;;;;;;;;;;5060858;28;20051;-68
2022/06/11 08:05:37;;;;;;;7.77;2.43;;;;;;;;;;5060655;28;20384;-68
2022/06/11 08:08:03;;;;;;;5.68;1.75;;;;;;;;;;5069054;28;20778;-68
2022/06/11 08:10:29;;;;;;;3.92;1.98;;;;;;;;;;5064000;28;20044;-67
2022/06/11 08:12:54;;;;;;;5.72;2.28;;;;;;;;;;5060979;28;20502;-67
2022/06/11 08:15:20;;;;;;;4.47;1.47;;;;;;;;;;5060417;28;20021;-68
2022/06/11 08:17:45;;;;;;;7.63;1.73;;;;;;;;;;5068004;28;20758;-67
2022/06/11 08:20:13;;;;;;;5.75;1.77;;;;;;;;;;5063449;28;20028;-67
2022/06/11 08:22:38;;;;;;;7.55;2.20;;;;;;;;;;5068094;28;20021;-68
2022/06/11 08:25:04;;;;;;;6.18;1.45;;;;;;;;;;5068647;28;20032;-68
2022/06/11 08:27:29;;;;;;;4.40;1.88;;;;;;;;;;5065719;28;20100;-67
2022/06/11 08:29:54;;;;;;;2.80;1.20;;;;;;;;;;5058550;28;20103;-68
2022/06/11 08:32:19;;;;;;;5.43;2.03;;;;;;;;;;5072423;28;20148;-68
2022/06/11 08:34:46;;;;;;;7.50;1.20;;;;;;;;;;5075008;28;20021;-68
2022/06/11 08:37:11;;;;;;;5.75;1.27;;;;;;;;;;5068153;28;20020;-67
2022/06/11 08:39:36;;;;;;;4.28;1.02;;;;;;;;;;5072001;28;20024;-68
2022/06/11 08:42:02;;;;;;;5.80;1.70;;;;;;;;;;5068301;28;20034;-68
2022/06/11 08:44:28;;;;;;;4.40;1.25;;;;;;;;;;5068700;28;20104;-68
2022/06/11 08:46:55;;;;;;;2.97;1.25;;;;;;;;;;5070455;28;20483;-67
2022/06/11 08:49:20;;;;;;;4.22;1.27;;;;;;;;;;5066043;28;20078;-68
2022/06/11 08:51:48;;;;;;;7.20;1.80;;;;;;;;;;5060796;28;20465;-68
2022/06/11 08:54:28;;;;;;;6.63;1.40;;;;;;;;;;5066529;28;20154;-68
2022/06/11 08:56:58;;;;;;;12.80;1.67;;;;;;;;;;5077268;28;20016;-68
2022/06/11 08:59:53;;;;;;;3.05;1.13;;;;;;;;;;5064432;28;20017;-68
2022/06/11 09:02:43;;;;;;;7.45;1.45;;;;;;;;;;5047547;28;20477;-68
2022/06/11 09:05:08;;;;;;;;;;;;;;;;;;5051659;28;20407;-68
2022/06/11 09:07:36;;;;;;;4.15;1.10;;;;;;;;;;5062723;28;20327;-68
2022/06/11 09:10:07;;;;;;;4.85;2.15;;;;;;;;;;5065424;28;20028;-67
2022/06/11 09:12:35;;;;;;;7.43;1.60;;;;;;;;;;5069586;28;20016;-67
2022/06/11 09:15:12;;;;;;;2.70;1.42;;;;;;;;;;5060030;28;20020;-68
2022/06/11 09:17:46;;;;;;;8.38;1.55;;;;;;;;;;5065394;28;20388;-67
2022/06/11 09:20:14;;;;;;;10.07;2.30;;;;;;;;;;5065218;28;20036;-67
2022/06/11 09:22:51;;;;;;;9.65;2.55;;;;;;;;;;5061582;28;20027;-67
2022/06/11 09:25:35;;;;;;;7.93;2.55;;;;;;;;;;5070543;28;20120;-67
2022/06/11 09:28:18;;;;;;;6.30;2.20;;;;;;;;;;5071110;28;20063;-67
2022/06/11 09:30:47;;;;;;;5.97;2.90;;;;;;;;;;5059626;28;20024;-67
2022/06/11 09:33:18;;;;;;;5.22;3.22;;;;;;;;;;5046982;28;20024;-67
2022/06/11 09:35:51;;;;;;;5.60;1.90;;;;;;;;;;5070620;28;20017;-67
2022/06/11 09:38:25;;;;;;;7.85;2.42;;;;;;;;;;5060060;28;20301;-67
2022/06/11 09:40:55;;;;;;;4.10;1.88;;;;;;;;;;5069621;28;20028;-68
2022/06/11 09:43:20;;;;;;;5.57;2.30;;;;;;;;;;5073821;28;20016;-67
2022/06/11 09:46:15;;;;;;;3.70;2.40;;;;;;;;;;5069657;28;20017;-67
2022/06/11 09:48:43;;;;;;;7.65;2.40;;;;;;;;;;5046849;28;20275;-68
2022/06/11 09:51:18;;;;;;;11.20;2.92;;;;;;;;;;5062770;28;20418;-68
2022/06/11 09:53:49;;;;;;;8.52;2.40;;;;;;;;;;5079719;28;20040;-68
2022/06/11 09:56:26;;;;;;;9.00;3.13;;;;;;;;;;5044313;28;20020;-68
2022/06/11 09:59:22;;;;;;;3.90;2.28;;;;;;;;;;5051434;28;20500;-68
2022/06/11 10:01:53;;;;;;;5.18;2.10;;;;;;;;;;5037835;28;20401;-68
2022/06/11 10:04:21;;;;;;;9.23;1.90;;;;;;;;;;5074709;28;20481;-68
2022/06/11 10:06:53;;;;;;;7.60;2.08;;;;;;;;;;5073635;28;20137;-68
2022/06/11 10:09:20;;;;;;;2.72;2.00;;;;;;;;;;5067231;28;20111;-68
2022/06/11 10:11:49;;;;;;;6.60;1.83;;;;;;;;;;5090694;28;20012;-68
2022/06/11 10:14:30;;;;;;;5.32;1.80;;;;;;;;;;5058774;28;20033;-67
2022/06/11 10:17:15;;;;;;;3.78;1.70;;;;;;;;;;5073868;28;20465;-67
2022/06/11 10:19:52;;;;;;;5.80;1.83;;;;;;;;;;5080368;28;20069;-68
2022/06/11 10:22:18;;;;;;;4.53;1.90;;;;;;;;;;5071909;28;20058;-68
2022/06/11 10:24:52;;;;;;;8.13;2.07;;;;;;;;;;5078050;28;20477;-68
2022/06/11 10:27:17;;;;;;;6.20;1.90;;;;;;;;;;5069953;28;20882;-68
2022/06/11 10:29:46;;;;;;;9.02;1.95;;;;;;;;;;5077448;28;20099;-68
2022/06/11 10:32:23;;;;;;;3.92;1.75;;;;;;;;;;5073140;28;20016;-68
2022/06/11 10:34:52;;;;;;;6.75;1.80;;;;;;;;;;5073585;28;20024;-68
2022/06/11 10:37:47;;;;;;;5.57;2.00;;;;;;;;;;5072810;28;20016;-68
2022/06/11 10:40:19;;;;;;;3.17;1.58;;;;;;;;;;5015181;28;20034;-68
2022/06/11 10:42:49;;;;;;;5.93;2.03;;;;;;;;;;5082508;28;20491;-67
2022/06/11 10:45:15;;;;;;;7.10;2.15;;;;;;;;;;5074038;28;20037;-68
2022/06/11 10:47:43;;;;;;;4.15;1.92;;;;;;;;;;5077977;28;20391;-68
2022/06/11 10:50:11;;;;;;;4.43;1.83;;;;;;;;;;5079755;28;20021;-69
2022/06/11 10:52:55;;;;;;;4.18;1.50;;;;;;;;;;5075269;28;20481;-68
2022/06/11 10:55:26;;;;;;;7.88;2.00;;;;;;;;;;5076327;28;20051;-68
2022/06/11 10:57:52;;;;;;;3.92;1.80;;;;;;;;;;5085590;28;20360;-68
2022/06/11 11:00:19;;;;;;;8.68;1.90;;;;;;;;;;5078172;28;20031;-68
2022/06/11 11:02:50;;;;;;;6.93;2.17;;;;;;;;;;5070000;28;20028;-68
2022/06/11 11:05:18;;;;;;;7.45;2.00;;;;;;;;;;5063615;28;20020;-68
2022/06/11 11:07:46;;;;;;;7.05;1.65;;;;;;;;;;5067423;28;20097;-68
2022/06/11 11:10:20;;;;;;;3.10;1.63;;;;;;;;;;5067472;28;20033;-68
2022/06/11 11:12:46;;;;;;;3.85;1.52;;;;;;;;;;5082915;28;20016;-68
2022/06/11 11:15:13;;;;;;;5.88;1.90;;;;;;;;;;5070377;28;20020;-68
2022/06/11 11:17:44;;;;;;;6.55;2.20;;;;;;;;;;5078868;28;20025;-68
2022/06/11 11:20:34;;;;;;;3.35;2.00;;;;;;;;;;5075975;28;20074;-68
2022/06/11 11:23:03;;;;;;;7.18;1.83;;;;;;;;;;5058235;28;20034;-68
2022/06/11 11:25:36;;;;;;;10.45;2.60;;;;;;;;;;5067008;28;20037;-68
2022/06/11 11:28:03;;;;;;;4.80;2.38;;;;;;;;;;5079551;28;20035;-68
2022/06/11 11:30:36;;;;;;;8.15;2.20;;;;;;;;;;5077522;28;20112;-68
2022/06/11 11:33:21;;;;;;;4.60;2.10;;;;;;;;;;5067369;28;20012;-68
2022/06/11 11:35:46;;;;;;;4.20;2.47;;;;;;;;;;5082757;28;20414;-68
2022/06/11 11:38:20;;;;;;;6.90;1.90;;;;;;;;;;5052348;28;20020;-68
2022/06/11 11:40:56;;;;;;;9.43;2.33;;;;;;;;;;5065545;28;20068;-68
2022/06/11 11:43:22;;;;;;;7.78;2.33;;;;;;;;;;5064200;28;20023;-68
2022/06/11 11:45:54;;;;;;;6.45;2.40;;;;;;;;;;5069626;28;20032;-67
2022/06/11 11:48:25;;;;;;;4.40;1.92;;;;;;;;;;5072934;28;20020;-68
2022/06/11 11:50:53;;;;;;;7.90;2.40;;;;;;;;;;5064168;28;20065;-68
2022/06/11 11:53:26;;;;;;;5.25;2.33;;;;;;;;;;5070972;28;20020;-68
2022/06/11 11:55:59;;;;;;;11.35;2.45;;;;;;;;;;5079122;28;20362;-68
2022/06/11 11:58:27;;;;;;;6.70;2.47;;;;;;;;;;5083826;28;20012;-69
2022/06/11 12:00:58;;;;;;;4.70;2.30;;;;;;;;;;5082091;28;20108;-69
2022/06/11 12:03:34;;;;;;;6.20;2.20;;;;;;;;;;5085419;28;20027;-69
2022/06/11 12:06:00;;;;;;;3.97;2.40;;;;;;;;;;5071736;28;20055;-68
2022/06/11 12:08:27;;;;;;;4.65;2.25;;;;;;;;;;5072678;28;20507;-69
2022/06/11 12:10:55;;;;;;;6.03;2.45;;;;;;;;;;5061377;28;20033;-68
2022/06/11 12:13:28;;;;;;;6.95;2.50;;;;;;;;;;5050603;28;20013;-69
2022/06/11 12:15:56;;;;;;;5.43;2.97;;;;;;;;;;5059440;28;20024;-68
2022/06/11 12:18:24;;;;;;;10.10;3.03;;;;;;;;;;5056154;28;20024;-68
2022/06/11 12:20:54;;;;;;;7.95;3.25;;;;;;;;;;5062372;28;20041;-68
2022/06/11 12:23:19;;;;;;;4.78;2.50;;;;;;;;;;5079784;28;20123;-68
2022/06/11 12:25:51;;;;;;;5.95;2.50;;;;;;;;;;5077595;28;20539;-68
2022/06/11 12:28:18;;;;;;;4.05;2.40;;;;;;;;;;5065768;28;20035;-68
2022/06/11 12:30:44;;;;;;;8.25;2.38;;;;;;;;;;5062356;28;20545;-67
2022/06/11 12:33:10;;;;;;;4.07;2.50;;;;;;;;;;5066462;28;20041;-68
2022/06/11 12:35:40;;;;;;;6.72;2.10;;;;;;;;;;5040928;28;20290;-69
2022/06/11 12:38:05;;;;;;;5.25;2.70;;;;;;;;;;5041193;28;20078;-68
2022/06/11 12:40:56;;;;;;;6.18;2.92;;;;;;;;;;5077791;22;20404;-69
2022/06/11 12:43:25;;;;;;;4.15;2.30;;;;;;;;;;5076137;28;20036;-69
2022/06/11 12:45:52;;;;;;;4.03;2.92;;;;;;;;;;5081008;28;20016;-69
2022/06/11 12:48:18;;;;;;;7.80;3.47;;;;;;;;;;5074004;28;20024;-68
2022/06/11 12:50:50;;;;;;;5.33;2.70;;;;;;;;;;5063694;28;20040;-69
2022/06/11 12:53:38;;;;;;;7.55;3.15;;;;;;;;;;5064584;28;20270;-69
2022/06/11 12:56:06;;;;;;;9.20;2.88;;;;;;;;;;5055016;28;20035;-68
2022/06/11 12:58:50;;;;;;;4.28;2.38;;;;;;;;;;5060679;28;20023;-70
2022/06/11 13:01:30;;;;;;;7.47;3.58;;;;;;;;;;5061448;28;20029;-69
2022/06/11 13:04:05;;;;;;;6.70;3.00;;;;;;;;;;5063873;28;20300;-69
2022/06/11 13:06:48;;;;;;;8.60;3.00;;;;;;;;;;5058462;28;20068;-69
2022/06/11 13:09:33;;;;;;;5.28;2.85;;;;;;;;;;5061130;28;20036;-69
2022/06/11 13:11:58;;;;;;;4.53;2.70;;;;;;;;;;5048824;28;20013;-69
2022/06/11 13:14:23;;;;;;;9.03;3.20;;;;;;;;;;5071040;28;20354;-69
2022/06/11 13:17:08;;;;;;;6.15;2.63;;;;;;;;;;5057341;28;20747;-69
2022/06/11 13:19:39;;;;;;;5.13;3.10;;;;;;;;;;5063699;28;20107;-69
2022/06/11 13:22:30;;;;;;;8.48;3.38;;;;;;;;;;5059348;28;20029;-69
2022/06/11 13:25:00;;;;;;;5.05;2.50;;;;;;;;;;5055903;28;20020;-69
2022/06/11 13:27:35;;;;;;;6.30;2.70;;;;;;;;;;5062036;28;20028;-69
2022/06/11 13:30:00;;;;;;;10.18;3.13;;;;;;;;;;5052526;28;20024;-69
2022/06/11 13:32:33;;;;;;;5.07;2.57;;;;;;;;;;5062712;28;20012;-69
2022/06/11 13:35:18;;;;;;;7.65;2.80;;;;;;;;;;5066173;28;20274;-69
2022/06/11 13:37:46;;;;;;;8.63;2.80;;;;;;;;;;5060165;28;20044;-69
2022/06/11 13:40:27;;;;;;;6.18;2.13;;;;;;;;;;5064896;28;20028;-69
2022/06/11 13:42:59;;;;;;;8.75;2.20;;;;;;;;;;5061057;28;20390;-69
2022/06/11 13:45:27;;;;;;;5.05;2.42;;;;;;;;;;5060611;28;20031;-69
2022/06/11 13:47:58;;;;;;;6.88;2.15;;;;;;;;;;5064720;28;20520;-69
2022/06/11 13:50:26;;;;;;;3.92;1.88;;;;;;;;;;5063619;28;20032;-68
2022/06/11 13:55:46;;;;;;;4.78;2.22;;;;;;;;;;5054786;28;20048;-69
2022/06/11 13:58:31;;;;;;;7.68;2.75;;;;;;;;;;5056503;28;20055;-68
2022/06/11 14:01:06;;;;;;;3.85;1.70;;;;;;;;;;5061089;28;20047;-68
2022/06/11 14:03:49;;;;;;;4.78;2.30;;;;;;;;;;5058393;28;20595;-68
2022/06/11 14:06:15;;;;;;;9.50;2.05;;;;;;;;;;5059922;28;20141;-69
2022/06/11 14:08:47;;;;;;;4.00;2.20;;;;;;;;;;5064322;28;20508;-69
2022/06/11 14:11:30;;;;;;;7.97;2.13;;;;;;;;;;5056893;28;20096;-69
2022/06/11 14:13:59;;;;;;;4.70;1.80;;;;;;;;;;5062704;28;20040;-69
2022/06/11 14:16:31;;;;;;;5.57;1.70;;;;;;;;;;5063459;28;20468;-68
2022/06/11 14:18:56;;;;;;;5.43;2.05;;;;;;;;;;5058007;28;20104;-68
2022/06/11 14:21:40;;;;;;;7.28;1.90;;;;;;;;;;5060929;28;20548;-68
2022/06/11 14:24:07;;;;;;;10.23;2.30;;;;;;;;;;5059957;28;20028;-69
2022/06/11 14:26:49;;;;;;;4.07;1.52;;;;;;;;;;5062371;28;20024;-68
2022/06/11 14:29:37;;;;;;;6.43;2.03;;;;;;;;;;5062269;28;20028;-68
2022/06/11 14:32:22;;;;;;;6.70;2.40;;;;;;;;;;5061614;28;20017;-68
2022/06/11 14:35:21;;;;;;;4.75;2.03;;;;;;;;;;5061570;28;20087;-68
2022/06/11 14:37:47;;;;;;;7.57;1.52;;;;;;;;;;5024029;28;20107;-68
2022/06/11 14:40:18;;;;;;;8.35;1.42;;;;;;;;;;5058997;28;20111;-68
2022/06/11 14:42:55;;;;;;;7.03;1.77;;;;;;;;;;5061262;28;20021;-69
2022/06/11 14:45:35;;;;;;;6.22;1.90;;;;;;;;;;5056459;28;20032;-69
2022/06/11 14:48:01;;;;;;;3.67;1.40;;;;;;;;;;5062769;28;20048;-69
2022/06/11 14:50:45;;;;;;;4.53;1.70;;;;;;;;;;5059773;28;20047;-70
2022/06/11 14:53:18;;;;;;;6.47;1.95;;;;;;;;;;5060216;28;20016;-69
2022/06/11 14:55:43;;;;;;;3.90;1.50;;;;;;;;;;5060953;28;20023;-69
2022/06/11 14:58:15;;;;;;;4.95;1.67;;;;;;;;;;5060640;28;20050;-68
2022/06/11 15:00:44;;;;;;;4.15;1.58;;;;;;;;;;5058969;28;20655;-68